sensor_id;sensor_type;location;lat;lon;timestamp;temperature;humidity
58554;DHT22;48119;53.218;6.576;2022-09-27T00:00:34;13.80;97.30
58554;DHT22;48119;53.218;6.576;2022-09-27T00:03:01;13.80;97.30
58554;DHT22;48119;53.218;6.576;2022-09-27T00:05:28;13.80;97.30
58554;DHT22;48119;53.218;6.576;2022-09-27T00:07:53;13.80;97.20
58554;DHT22;48119;53.218;6.576;2022-09-27T00:10:19;13.70;97.00
58554;DHT22;48119;53.218;6.576;2022-09-27T00:12:45;13.70;97.10
58554;DHT22;48119;53.218;6.576;2022-09-27T00:15:12;13.70;97.20
58554;DHT22;48119;53.218;6.576;2022-09-27T00:17:39;13.70;97.20
58554;DHT22;48119;53.218;6.576;2022-09-27T00:20:06;13.70;97.30
58554;DHT22;48119;53.218;6.576;2022-09-27T00:22:32;13.70;97.30
58554;DHT22;48119;53.218;6.576;2022-09-27T00:24:59;13.70;97.30
58554;DHT22;48119;53.218;6.576;2022-09-27T00:27:25;13.70;97.30
58554;DHT22;48119;53.218;6.576;2022-09-27T00:29:51;13.70;97.30
58554;DHT22;48119;53.218;6.576;2022-09-27T00:32:17;13.70;97.70
58554;DHT22;48119;53.218;6.576;2022-09-27T00:34:43;13.70;97.40
58554;DHT22;48119;53.218;6.576;2022-09-27T00:37:09;13.60;97.40
58554;DHT22;48119;53.218;6.576;2022-09-27T00:39:36;13.70;97.50
58554;DHT22;48119;53.218;6.576;2022-09-27T00:42:04;13.70;97.40
58554;DHT22;48119;53.218;6.576;2022-09-27T00:47:23;13.70;97.50
58554;DHT22;48119;53.218;6.576;2022-09-27T00:50:00;13.70;97.50
58554;DHT22;48119;53.218;6.576;2022-09-27T00:52:39;13.70;97.50
58554;DHT22;48119;53.218;6.576;2022-09-27T00:55:26;13.70;97.50
58554;DHT22;48119;53.218;6.576;2022-09-27T00:57:53;13.70;97.40
58554;DHT22;48119;53.218;6.576;2022-09-27T01:00:21;13.60;97.40
58554;DHT22;48119;53.218;6.576;2022-09-27T01:02:49;13.60;97.40
58554;DHT22;48119;53.218;6.576;2022-09-27T01:05:17;13.60;97.40
58554;DHT22;48119;53.218;6.576;2022-09-27T01:07:47;13.60;97.50
58554;DHT22;48119;53.218;6.576;2022-09-27T01:10:14;13.60;97.40
58554;DHT22;48119;53.218;6.576;2022-09-27T01:12:55;13.60;97.40
58554;DHT22;48119;53.218;6.576;2022-09-27T01:18:24;13.60;97.40
58554;DHT22;48119;53.218;6.576;2022-09-27T01:35:35;13.60;97.00
58554;DHT22;48119;53.218;6.576;2022-09-27T01:43:26;13.50;96.80
58554;DHT22;48119;53.218;6.576;2022-09-27T01:46:16;13.60;96.90
58554;DHT22;48119;53.218;6.576;2022-09-27T01:48:47;13.60;96.80
58554;DHT22;48119;53.218;6.576;2022-09-27T01:51:24;13.50;96.90
58554;DHT22;48119;53.218;6.576;2022-09-27T01:53:54;13.60;96.90
58554;DHT22;48119;53.218;6.576;2022-09-27T01:56:24;13.50;96.80
58554;DHT22;48119;53.218;6.576;2022-09-27T01:59:09;13.60;96.70
58554;DHT22;48119;53.218;6.576;2022-09-27T02:01:38;13.50;96.50
58554;DHT22;48119;53.218;6.576;2022-09-27T02:04:06;13.60;96.50
58554;DHT22;48119;53.218;6.576;2022-09-27T02:06:37;13.50;96.30
58554;DHT22;48119;53.218;6.576;2022-09-27T02:11:29;13.50;96.20
58554;DHT22;48119;53.218;6.576;2022-09-27T02:14:01;13.50;96.20
58554;DHT22;48119;53.218;6.576;2022-09-27T02:16:50;13.50;96.10
58554;DHT22;48119;53.218;6.576;2022-09-27T02:19:37;13.50;96.40
58554;DHT22;48119;53.218;6.576;2022-09-27T02:22:37;13.50;96.60
58554;DHT22;48119;53.218;6.576;2022-09-27T02:25:14;13.50;96.70
58554;DHT22;48119;53.218;6.576;2022-09-27T02:28:05;13.40;96.80
58554;DHT22;48119;53.218;6.576;2022-09-27T02:30:34;13.40;97.00
58554;DHT22;48119;53.218;6.576;2022-09-27T02:33:01;13.40;96.70
58554;DHT22;48119;53.218;6.576;2022-09-27T02:35:36;13.40;96.60
58554;DHT22;48119;53.218;6.576;2022-09-27T02:38:05;13.40;96.40
58554;DHT22;48119;53.218;6.576;2022-09-27T02:40:42;13.40;96.20
58554;DHT22;48119;53.218;6.576;2022-09-27T02:43:08;13.40;96.10
58554;DHT22;48119;53.218;6.576;2022-09-27T02:51:51;13.30;96.10
58554;DHT22;48119;53.218;6.576;2022-09-27T03:02:30;13.30;96.50
58554;DHT22;48119;53.218;6.576;2022-09-27T03:05:04;13.30;96.70
58554;DHT22;48119;53.218;6.576;2022-09-27T03:07:31;13.30;96.70
58554;DHT22;48119;53.218;6.576;2022-09-27T03:09:57;13.30;96.80
58554;DHT22;48119;53.218;6.576;2022-09-27T03:12:25;13.30;96.80
58554;DHT22;48119;53.218;6.576;2022-09-27T03:14:56;13.30;96.80
58554;DHT22;48119;53.218;6.576;2022-09-27T03:17:22;13.30;96.80
58554;DHT22;48119;53.218;6.576;2022-09-27T03:19:48;13.30;96.70
58554;DHT22;48119;53.218;6.576;2022-09-27T03:22:14;13.30;96.70
58554;DHT22;48119;53.218;6.576;2022-09-27T03:24:40;13.30;96.70
58554;DHT22;48119;53.218;6.576;2022-09-27T03:27:06;13.30;96.60
58554;DHT22;48119;53.218;6.576;2022-09-27T03:29:32;13.20;96.50
58554;DHT22;48119;53.218;6.576;2022-09-27T03:31:58;13.20;96.40
58554;DHT22;48119;53.218;6.576;2022-09-27T03:34:23;13.20;96.50
58554;DHT22;48119;53.218;6.576;2022-09-27T03:36:49;13.20;96.50
58554;DHT22;48119;53.218;6.576;2022-09-27T03:39:15;13.20;96.60
58554;DHT22;48119;53.218;6.576;2022-09-27T03:41:41;13.20;96.60
58554;DHT22;48119;53.218;6.576;2022-09-27T03:44:06;13.20;96.60
58554;DHT22;48119;53.218;6.576;2022-09-27T03:46:33;13.20;96.50
58554;DHT22;48119;53.218;6.576;2022-09-27T03:48:59;13.20;96.50
58554;DHT22;48119;53.218;6.576;2022-09-27T03:51:27;13.20;96.50
58554;DHT22;48119;53.218;6.576;2022-09-27T03:53:52;13.20;96.40
58554;DHT22;48119;53.218;6.576;2022-09-27T03:56:18;13.10;96.40
58554;DHT22;48119;53.218;6.576;2022-09-27T03:58:44;13.10;96.40
58554;DHT22;48119;53.218;6.576;2022-09-27T04:01:10;13.10;96.40
58554;DHT22;48119;53.218;6.576;2022-09-27T04:03:36;13.10;96.50
58554;DHT22;48119;53.218;6.576;2022-09-27T04:06:03;13.10;96.50
58554;DHT22;48119;53.218;6.576;2022-09-27T04:08:29;13.10;96.60
58554;DHT22;48119;53.218;6.576;2022-09-27T04:10:55;13.10;96.60
58554;DHT22;48119;53.218;6.576;2022-09-27T04:13:22;13.10;96.70
58554;DHT22;48119;53.218;6.576;2022-09-27T04:15:47;13.10;96.70
58554;DHT22;48119;53.218;6.576;2022-09-27T04:18:13;13.10;96.70
58554;DHT22;48119;53.218;6.576;2022-09-27T04:20:39;13.10;97.00
58554;DHT22;48119;53.218;6.576;2022-09-27T04:23:06;13.10;96.70
58554;DHT22;48119;53.218;6.576;2022-09-27T04:25:31;13.10;96.70
58554;DHT22;48119;53.218;6.576;2022-09-27T04:28:01;13.10;96.70
58554;DHT22;48119;53.218;6.576;2022-09-27T04:30:30;13.10;96.80
58554;DHT22;48119;53.218;6.576;2022-09-27T04:32:56;13.10;96.80
58554;DHT22;48119;53.218;6.576;2022-09-27T04:35:22;13.10;96.90
58554;DHT22;48119;53.218;6.576;2022-09-27T04:38:06;13.10;96.90
58554;DHT22;48119;53.218;6.576;2022-09-27T04:40:35;13.00;96.90
58554;DHT22;48119;53.218;6.576;2022-09-27T04:43:01;13.00;97.00
58554;DHT22;48119;53.218;6.576;2022-09-27T04:45:29;13.00;97.00
58554;DHT22;48119;53.218;6.576;2022-09-27T04:47:55;13.00;97.00
58554;DHT22;48119;53.218;6.576;2022-09-27T04:50:21;13.00;97.00
58554;DHT22;48119;53.218;6.576;2022-09-27T04:52:53;13.00;97.00
58554;DHT22;48119;53.218;6.576;2022-09-27T04:55:20;13.00;96.90
58554;DHT22;48119;53.218;6.576;2022-09-27T04:57:46;13.00;97.00
58554;DHT22;48119;53.218;6.576;2022-09-27T05:00:12;13.00;96.90
58554;DHT22;48119;53.218;6.576;2022-09-27T05:02:39;13.00;96.90
58554;DHT22;48119;53.218;6.576;2022-09-27T05:05:04;13.00;96.80
58554;DHT22;48119;53.218;6.576;2022-09-27T05:07:33;13.00;96.70
58554;DHT22;48119;53.218;6.576;2022-09-27T05:09:59;13.10;96.70
58554;DHT22;48119;53.218;6.576;2022-09-27T05:12:25;13.00;96.80
58554;DHT22;48119;53.218;6.576;2022-09-27T05:14:52;13.10;96.40
58554;DHT22;48119;53.218;6.576;2022-09-27T05:17:24;13.10;96.50
58554;DHT22;48119;53.218;6.576;2022-09-27T05:19:50;13.10;96.40
58554;DHT22;48119;53.218;6.576;2022-09-27T05:22:16;13.10;96.50
58554;DHT22;48119;53.218;6.576;2022-09-27T05:24:44;13.10;96.60
58554;DHT22;48119;53.218;6.576;2022-09-27T05:27:14;13.10;96.60
58554;DHT22;48119;53.218;6.576;2022-09-27T05:29:43;13.00;96.60
58554;DHT22;48119;53.218;6.576;2022-09-27T05:32:10;13.00;96.60
58554;DHT22;48119;53.218;6.576;2022-09-27T05:34:38;13.00;96.70
58554;DHT22;48119;53.218;6.576;2022-09-27T05:37:04;13.00;96.80
58554;DHT22;48119;53.218;6.576;2022-09-27T05:39:30;13.00;96.90
58554;DHT22;48119;53.218;6.576;2022-09-27T05:41:55;13.00;96.80
58554;DHT22;48119;53.218;6.576;2022-09-27T05:44:22;13.00;96.80
58554;DHT22;48119;53.218;6.576;2022-09-27T05:46:48;13.00;96.90
58554;DHT22;48119;53.218;6.576;2022-09-27T05:49:13;13.00;97.00
58554;DHT22;48119;53.218;6.576;2022-09-27T05:51:39;12.90;97.20
58554;DHT22;48119;53.218;6.576;2022-09-27T05:54:05;13.00;97.20
58554;DHT22;48119;53.218;6.576;2022-09-27T05:56:31;13.00;97.20
58554;DHT22;48119;53.218;6.576;2022-09-27T05:58:57;13.00;97.30
58554;DHT22;48119;53.218;6.576;2022-09-27T06:01:23;13.00;97.30
58554;DHT22;48119;53.218;6.576;2022-09-27T06:03:53;13.00;97.30
58554;DHT22;48119;53.218;6.576;2022-09-27T06:06:20;13.00;97.40
58554;DHT22;48119;53.218;6.576;2022-09-27T06:08:48;13.00;97.30
58554;DHT22;48119;53.218;6.576;2022-09-27T06:11:14;13.00;97.20
58554;DHT22;48119;53.218;6.576;2022-09-27T06:13:40;13.00;97.20
58554;DHT22;48119;53.218;6.576;2022-09-27T06:16:07;13.00;97.20
58554;DHT22;48119;53.218;6.576;2022-09-27T06:18:34;13.00;97.20
58554;DHT22;48119;53.218;6.576;2022-09-27T06:21:02;13.00;97.30
58554;DHT22;48119;53.218;6.576;2022-09-27T06:23:28;13.00;97.30
58554;DHT22;48119;53.218;6.576;2022-09-27T06:29:38;13.00;97.50
58554;DHT22;48119;53.218;6.576;2022-09-27T06:32:03;13.00;97.30
58554;DHT22;48119;53.218;6.576;2022-09-27T06:34:29;13.00;97.30
58554;DHT22;48119;53.218;6.576;2022-09-27T06:36:56;13.10;97.20
58554;DHT22;48119;53.218;6.576;2022-09-27T06:39:21;13.10;97.20
58554;DHT22;48119;53.218;6.576;2022-09-27T06:41:47;13.10;97.20
58554;DHT22;48119;53.218;6.576;2022-09-27T06:44:13;13.10;97.20
58554;DHT22;48119;53.218;6.576;2022-09-27T06:46:38;13.10;97.20
58554;DHT22;48119;53.218;6.576;2022-09-27T06:49:04;13.00;97.20
58554;DHT22;48119;53.218;6.576;2022-09-27T06:51:31;13.00;97.30
58554;DHT22;48119;53.218;6.576;2022-09-27T06:53:57;13.00;97.40
58554;DHT22;48119;53.218;6.576;2022-09-27T06:56:23;13.00;97.40
58554;DHT22;48119;53.218;6.576;2022-09-27T06:58:49;13.00;97.50
58554;DHT22;48119;53.218;6.576;2022-09-27T07:01:33;13.00;97.50
58554;DHT22;48119;53.218;6.576;2022-09-27T07:04:03;13.00;97.50
58554;DHT22;48119;53.218;6.576;2022-09-27T07:06:30;13.00;97.50
58554;DHT22;48119;53.218;6.576;2022-09-27T07:08:56;13.00;97.50
58554;DHT22;48119;53.218;6.576;2022-09-27T07:11:22;13.00;97.50
58554;DHT22;48119;53.218;6.576;2022-09-27T07:13:50;13.00;97.50
58554;DHT22;48119;53.218;6.576;2022-09-27T07:16:16;13.00;97.50
58554;DHT22;48119;53.218;6.576;2022-09-27T07:18:42;13.00;97.60
58554;DHT22;48119;53.218;6.576;2022-09-27T07:21:08;13.00;97.50
58554;DHT22;48119;53.218;6.576;2022-09-27T07:23:35;13.00;97.40
58554;DHT22;48119;53.218;6.576;2022-09-27T07:26:02;13.00;97.50
58554;DHT22;48119;53.218;6.576;2022-09-27T07:28:35;13.00;97.60
58554;DHT22;48119;53.218;6.576;2022-09-27T07:31:02;13.00;97.70
58554;DHT22;48119;53.218;6.576;2022-09-27T07:33:28;13.20;97.60
58554;DHT22;48119;53.218;6.576;2022-09-27T07:35:54;13.00;97.50
58554;DHT22;48119;53.218;6.576;2022-09-27T07:38:20;13.10;97.60
58554;DHT22;48119;53.218;6.576;2022-09-27T07:40:46;13.10;97.60
58554;DHT22;48119;53.218;6.576;2022-09-27T07:43:11;13.10;97.50
58554;DHT22;48119;53.218;6.576;2022-09-27T07:45:37;13.10;97.60
58554;DHT22;48119;53.218;6.576;2022-09-27T07:48:08;13.20;97.60
58554;DHT22;48119;53.218;6.576;2022-09-27T07:50:35;13.20;97.70
58554;DHT22;48119;53.218;6.576;2022-09-27T07:53:02;13.20;97.70
58554;DHT22;48119;53.218;6.576;2022-09-27T07:55:29;13.30;97.70
58554;DHT22;48119;53.218;6.576;2022-09-27T07:58:03;13.20;97.50
58554;DHT22;48119;53.218;6.576;2022-09-27T08:00:29;13.20;97.40
58554;DHT22;48119;53.218;6.576;2022-09-27T08:02:55;13.30;97.40
58554;DHT22;48119;53.218;6.576;2022-09-27T08:05:20;13.30;97.40
58554;DHT22;48119;53.218;6.576;2022-09-27T08:07:46;13.10;97.40
58554;DHT22;48119;53.218;6.576;2022-09-27T08:10:12;13.20;97.40
58554;DHT22;48119;53.218;6.576;2022-09-27T08:12:37;13.20;97.40
58554;DHT22;48119;53.218;6.576;2022-09-27T08:15:04;13.20;97.50
58554;DHT22;48119;53.218;6.576;2022-09-27T08:17:31;13.20;97.60
58554;DHT22;48119;53.218;6.576;2022-09-27T08:19:56;13.20;97.60
58554;DHT22;48119;53.218;6.576;2022-09-27T08:22:23;13.20;97.60
58554;DHT22;48119;53.218;6.576;2022-09-27T08:24:49;13.10;97.40
58554;DHT22;48119;53.218;6.576;2022-09-27T08:27:16;13.20;97.40
58554;DHT22;48119;53.218;6.576;2022-09-27T08:29:41;13.20;97.40
58554;DHT22;48119;53.218;6.576;2022-09-27T08:32:11;13.20;97.50
58554;DHT22;48119;53.218;6.576;2022-09-27T08:34:37;13.20;97.50
58554;DHT22;48119;53.218;6.576;2022-09-27T08:37:06;13.30;97.50
58554;DHT22;48119;53.218;6.576;2022-09-27T08:39:32;13.30;97.60
58554;DHT22;48119;53.218;6.576;2022-09-27T08:50:09;13.40;97.70
58554;DHT22;48119;53.218;6.576;2022-09-27T08:52:51;13.40;97.60
58554;DHT22;48119;53.218;6.576;2022-09-27T08:55:31;13.50;97.70
58554;DHT22;48119;53.218;6.576;2022-09-27T08:57:58;13.50;97.80
58554;DHT22;48119;53.218;6.576;2022-09-27T09:00:25;13.40;97.70
58554;DHT22;48119;53.218;6.576;2022-09-27T09:02:52;13.50;97.70
58554;DHT22;48119;53.218;6.576;2022-09-27T09:05:32;13.50;97.60
58554;DHT22;48119;53.218;6.576;2022-09-27T09:08:20;13.40;97.50
58554;DHT22;48119;53.218;6.576;2022-09-27T09:14:17;13.50;97.60
58554;DHT22;48119;53.218;6.576;2022-09-27T09:36:25;13.50;97.90
58554;DHT22;48119;53.218;6.576;2022-09-27T09:39:09;13.50;98.10
58554;DHT22;48119;53.218;6.576;2022-09-27T09:47:33;13.50;98.30
58554;DHT22;48119;53.218;6.576;2022-09-27T09:50:05;13.50;98.20
58554;DHT22;48119;53.218;6.576;2022-09-27T09:53:32;13.40;98.30
58554;DHT22;48119;53.218;6.576;2022-09-27T09:55:34;13.40;98.20
58554;DHT22;48119;53.218;6.576;2022-09-27T09:58:07;13.40;98.00
58554;DHT22;48119;53.218;6.576;2022-09-27T10:00:37;13.40;97.90
58554;DHT22;48119;53.218;6.576;2022-09-27T10:03:04;13.40;97.90
58554;DHT22;48119;53.218;6.576;2022-09-27T10:05:30;13.40;97.90
58554;DHT22;48119;53.218;6.576;2022-09-27T10:08:00;13.40;97.80
58554;DHT22;48119;53.218;6.576;2022-09-27T10:10:27;13.30;97.70
58554;DHT22;48119;53.218;6.576;2022-09-27T10:12:54;13.30;97.80
58554;DHT22;48119;53.218;6.576;2022-09-27T10:15:22;13.40;97.60
58554;DHT22;48119;53.218;6.576;2022-09-27T10:17:53;13.40;97.50
58554;DHT22;48119;53.218;6.576;2022-09-27T10:20:35;13.30;97.20
58554;DHT22;48119;53.218;6.576;2022-09-27T10:23:21;13.40;97.30
58554;DHT22;48119;53.218;6.576;2022-09-27T10:26:01;13.40;97.20
58554;DHT22;48119;53.218;6.576;2022-09-27T10:28:34;13.40;97.40
58554;DHT22;48119;53.218;6.576;2022-09-27T10:31:11;13.40;97.40
58554;DHT22;48119;53.218;6.576;2022-09-27T10:33:50;13.40;97.30
58554;DHT22;48119;53.218;6.576;2022-09-27T10:36:26;13.40;97.10
58554;DHT22;48119;53.218;6.576;2022-09-27T10:38:56;13.40;97.30
58554;DHT22;48119;53.218;6.576;2022-09-27T10:43:56;13.50;97.50
58554;DHT22;48119;53.218;6.576;2022-09-27T10:46:33;13.50;97.50
58554;DHT22;48119;53.218;6.576;2022-09-27T10:52:23;13.60;97.50
58554;DHT22;48119;53.218;6.576;2022-09-27T10:55:03;13.60;97.30
58554;DHT22;48119;53.218;6.576;2022-09-27T10:57:30;13.60;97.40
58554;DHT22;48119;53.218;6.576;2022-09-27T11:00:05;13.70;97.40
58554;DHT22;48119;53.218;6.576;2022-09-27T11:02:34;13.60;97.10
58554;DHT22;48119;53.218;6.576;2022-09-27T11:10:58;13.60;96.20
58554;DHT22;48119;53.218;6.576;2022-09-27T11:13:25;13.50;96.20
58554;DHT22;48119;53.218;6.576;2022-09-27T11:16:17;13.50;96.10
58554;DHT22;48119;53.218;6.576;2022-09-27T11:24:20;13.50;96.00
58554;DHT22;48119;53.218;6.576;2022-09-27T11:26:59;13.50;96.20
58554;DHT22;48119;53.218;6.576;2022-09-27T11:33:00;13.40;96.10
58554;DHT22;48119;53.218;6.576;2022-09-27T11:46:40;13.50;96.20
58554;DHT22;48119;53.218;6.576;2022-09-27T11:54:46;13.60;96.80
58554;DHT22;48119;53.218;6.576;2022-09-27T11:59:50;13.80;97.20
58554;DHT22;48119;53.218;6.576;2022-09-27T12:10:41;13.60;95.80
58554;DHT22;48119;53.218;6.576;2022-09-27T12:13:11;13.50;95.80
58554;DHT22;48119;53.218;6.576;2022-09-27T12:15:41;13.40;96.00
58554;DHT22;48119;53.218;6.576;2022-09-27T12:20:40;13.40;96.30
58554;DHT22;48119;53.218;6.576;2022-09-27T12:23:08;13.50;96.50
58554;DHT22;48119;53.218;6.576;2022-09-27T12:25:38;13.40;96.30
58554;DHT22;48119;53.218;6.576;2022-09-27T12:28:42;13.50;96.20
58554;DHT22;48119;53.218;6.576;2022-09-27T12:31:27;13.50;96.20
58554;DHT22;48119;53.218;6.576;2022-09-27T12:34:10;13.50;96.10
58554;DHT22;48119;53.218;6.576;2022-09-27T12:36:40;13.50;96.00
58554;DHT22;48119;53.218;6.576;2022-09-27T12:39:18;13.50;96.00
58554;DHT22;48119;53.218;6.576;2022-09-27T12:42:02;13.50;96.00
58554;DHT22;48119;53.218;6.576;2022-09-27T12:44:37;13.60;96.20
58554;DHT22;48119;53.218;6.576;2022-09-27T12:53:01;13.60;96.40
58554;DHT22;48119;53.218;6.576;2022-09-27T12:56:02;13.70;96.40
58554;DHT22;48119;53.218;6.576;2022-09-27T12:58:53;13.70;96.40
58554;DHT22;48119;53.218;6.576;2022-09-27T13:04:32;13.70;96.50
58554;DHT22;48119;53.218;6.576;2022-09-27T13:10:02;13.80;96.60
58554;DHT22;48119;53.218;6.576;2022-09-27T13:12:31;13.80;96.60
58554;DHT22;48119;53.218;6.576;2022-09-27T13:15:05;13.80;96.40
58554;DHT22;48119;53.218;6.576;2022-09-27T13:22:59;13.90;94.90
58554;DHT22;48119;53.218;6.576;2022-09-27T13:25:52;13.90;94.90
58554;DHT22;48119;53.218;6.576;2022-09-27T13:30:55;13.90;94.90
58554;DHT22;48119;53.218;6.576;2022-09-27T13:47:03;13.70;94.50
58554;DHT22;48119;53.218;6.576;2022-09-27T13:49:49;13.70;94.70
58554;DHT22;48119;53.218;6.576;2022-09-27T13:52:32;13.70;94.70
58554;DHT22;48119;53.218;6.576;2022-09-27T13:55:02;13.60;94.80
58554;DHT22;48119;53.218;6.576;2022-09-27T14:00:17;13.50;95.30
58554;DHT22;48119;53.218;6.576;2022-09-27T14:05:59;13.50;95.90
58554;DHT22;48119;53.218;6.576;2022-09-27T14:08:28;13.50;95.90
58554;DHT22;48119;53.218;6.576;2022-09-27T14:10:55;13.50;96.00
58554;DHT22;48119;53.218;6.576;2022-09-27T14:13:23;13.50;96.10
58554;DHT22;48119;53.218;6.576;2022-09-27T14:15:51;13.50;96.10
58554;DHT22;48119;53.218;6.576;2022-09-27T14:18:18;13.50;96.00
58554;DHT22;48119;53.218;6.576;2022-09-27T14:20:48;13.60;96.00
58554;DHT22;48119;53.218;6.576;2022-09-27T14:23:24;13.60;96.30
58554;DHT22;48119;53.218;6.576;2022-09-27T14:25:53;13.60;96.50
58554;DHT22;48119;53.218;6.576;2022-09-27T14:28:28;13.50;96.20
58554;DHT22;48119;53.218;6.576;2022-09-27T14:31:15;13.50;96.00
58554;DHT22;48119;53.218;6.576;2022-09-27T14:33:43;13.50;96.00
58554;DHT22;48119;53.218;6.576;2022-09-27T14:36:26;13.50;96.00
58554;DHT22;48119;53.218;6.576;2022-09-27T14:39:23;13.50;96.00
58554;DHT22;48119;53.218;6.576;2022-09-27T14:41:50;13.50;96.20
58554;DHT22;48119;53.218;6.576;2022-09-27T14:44:20;13.40;96.30
58554;DHT22;48119;53.218;6.576;2022-09-27T14:46:46;13.40;96.30
58554;DHT22;48119;53.218;6.576;2022-09-27T14:49:23;13.40;96.40
58554;DHT22;48119;53.218;6.576;2022-09-27T14:51:53;13.40;96.40
58554;DHT22;48119;53.218;6.576;2022-09-27T14:54:22;13.40;96.40
58554;DHT22;48119;53.218;6.576;2022-09-27T14:56:53;13.40;96.40
58554;DHT22;48119;53.218;6.576;2022-09-27T14:59:28;13.40;96.40
58554;DHT22;48119;53.218;6.576;2022-09-27T15:02:01;13.50;96.40
58554;DHT22;48119;53.218;6.576;2022-09-27T15:04:30;13.50;96.30
58554;DHT22;48119;53.218;6.576;2022-09-27T15:06:57;13.50;96.30
58554;DHT22;48119;53.218;6.576;2022-09-27T15:09:25;13.50;96.30
58554;DHT22;48119;53.218;6.576;2022-09-27T15:11:54;13.50;96.20
58554;DHT22;48119;53.218;6.576;2022-09-27T15:14:25;13.60;96.20
58554;DHT22;48119;53.218;6.576;2022-09-27T15:16:54;13.50;96.30
58554;DHT22;48119;53.218;6.576;2022-09-27T15:19:25;13.60;96.30
58554;DHT22;48119;53.218;6.576;2022-09-27T15:21:52;13.60;96.10
58554;DHT22;48119;53.218;6.576;2022-09-27T15:24:46;13.50;96.00
58554;DHT22;48119;53.218;6.576;2022-09-27T15:27:17;13.50;95.80
58554;DHT22;48119;53.218;6.576;2022-09-27T15:29:54;13.60;95.90
58554;DHT22;48119;53.218;6.576;2022-09-27T15:32:25;13.60;95.70
58554;DHT22;48119;53.218;6.576;2022-09-27T15:34:52;13.50;95.70
58554;DHT22;48119;53.218;6.576;2022-09-27T15:39:51;13.50;95.80
58554;DHT22;48119;53.218;6.576;2022-09-27T15:42:17;13.50;95.70
58554;DHT22;48119;53.218;6.576;2022-09-27T15:44:54;13.50;95.60
58554;DHT22;48119;53.218;6.576;2022-09-27T15:52:53;13.60;95.80
58554;DHT22;48119;53.218;6.576;2022-09-27T15:55:25;13.50;95.90
58554;DHT22;48119;53.218;6.576;2022-09-27T15:57:57;13.50;95.90
58554;DHT22;48119;53.218;6.576;2022-09-27T16:00:24;13.50;96.00
58554;DHT22;48119;53.218;6.576;2022-09-27T16:02:50;13.60;96.00
58554;DHT22;48119;53.218;6.576;2022-09-27T16:05:15;13.50;96.00
58554;DHT22;48119;53.218;6.576;2022-09-27T16:07:41;13.60;96.10
58554;DHT22;48119;53.218;6.576;2022-09-27T16:10:20;13.60;96.00
58554;DHT22;48119;53.218;6.576;2022-09-27T16:12:46;13.60;95.80
58554;DHT22;48119;53.218;6.576;2022-09-27T16:15:13;13.50;95.80
58554;DHT22;48119;53.218;6.576;2022-09-27T16:17:39;13.50;95.80
58554;DHT22;48119;53.218;6.576;2022-09-27T16:20:14;13.60;95.90
58554;DHT22;48119;53.218;6.576;2022-09-27T16:22:42;13.50;95.90
58554;DHT22;48119;53.218;6.576;2022-09-27T16:25:08;13.60;96.00
58554;DHT22;48119;53.218;6.576;2022-09-27T16:27:34;13.60;96.00
58554;DHT22;48119;53.218;6.576;2022-09-27T16:30:02;13.60;96.00
58554;DHT22;48119;53.218;6.576;2022-09-27T16:32:31;13.50;96.00
58554;DHT22;48119;53.218;6.576;2022-09-27T16:34:57;13.50;96.00
58554;DHT22;48119;53.218;6.576;2022-09-27T16:37:23;13.50;96.10
58554;DHT22;48119;53.218;6.576;2022-09-27T16:39:48;13.50;96.20
58554;DHT22;48119;53.218;6.576;2022-09-27T16:42:14;13.50;96.30
58554;DHT22;48119;53.218;6.576;2022-09-27T16:44:40;13.50;96.30
58554;DHT22;48119;53.218;6.576;2022-09-27T16:47:06;13.50;96.30
58554;DHT22;48119;53.218;6.576;2022-09-27T16:49:32;13.40;96.30
58554;DHT22;48119;53.218;6.576;2022-09-27T16:52:18;13.40;96.30
58554;DHT22;48119;53.218;6.576;2022-09-27T16:54:47;13.40;96.20
58554;DHT22;48119;53.218;6.576;2022-09-27T16:57:13;13.40;96.20
58554;DHT22;48119;53.218;6.576;2022-09-27T16:59:38;13.50;96.10
58554;DHT22;48119;53.218;6.576;2022-09-27T17:02:05;13.40;96.30
58554;DHT22;48119;53.218;6.576;2022-09-27T17:04:31;13.40;95.90
58554;DHT22;48119;53.218;6.576;2022-09-27T17:06:59;13.40;95.50
58554;DHT22;48119;53.218;6.576;2022-09-27T17:09:25;13.40;95.10
58554;DHT22;48119;53.218;6.576;2022-09-27T17:11:51;13.40;94.80
58554;DHT22;48119;53.218;6.576;2022-09-27T17:14:17;13.30;94.80
58554;DHT22;48119;53.218;6.576;2022-09-27T17:16:44;13.30;94.70
58554;DHT22;48119;53.218;6.576;2022-09-27T17:19:10;13.30;94.70
58554;DHT22;48119;53.218;6.576;2022-09-27T17:21:36;13.30;94.70
58554;DHT22;48119;53.218;6.576;2022-09-27T17:24:02;13.20;94.60
58554;DHT22;48119;53.218;6.576;2022-09-27T17:26:28;13.20;94.50
58554;DHT22;48119;53.218;6.576;2022-09-27T17:28:58;13.20;94.60
58554;DHT22;48119;53.218;6.576;2022-09-27T17:31:26;13.20;94.60
58554;DHT22;48119;53.218;6.576;2022-09-27T17:33:53;13.20;94.40
58554;DHT22;48119;53.218;6.576;2022-09-27T17:36:21;13.20;94.40
58554;DHT22;48119;53.218;6.576;2022-09-27T17:38:49;13.20;94.30
58554;DHT22;48119;53.218;6.576;2022-09-27T17:41:23;13.10;94.30
58554;DHT22;48119;53.218;6.576;2022-09-27T17:43:55;13.10;94.30
58554;DHT22;48119;53.218;6.576;2022-09-27T17:46:26;13.10;94.30
58554;DHT22;48119;53.218;6.576;2022-09-27T17:48:52;13.00;94.20
58554;DHT22;48119;53.218;6.576;2022-09-27T17:51:38;13.00;94.30
58554;DHT22;48119;53.218;6.576;2022-09-27T17:54:05;13.00;94.30
58554;DHT22;48119;53.218;6.576;2022-09-27T17:56:39;13.00;94.30
58554;DHT22;48119;53.218;6.576;2022-09-27T17:59:06;13.00;94.40
58554;DHT22;48119;53.218;6.576;2022-09-27T18:01:36;12.90;94.40
58554;DHT22;48119;53.218;6.576;2022-09-27T18:04:10;12.90;94.50
58554;DHT22;48119;53.218;6.576;2022-09-27T18:06:38;12.90;94.50
58554;DHT22;48119;53.218;6.576;2022-09-27T18:09:05;12.90;94.60
58554;DHT22;48119;53.218;6.576;2022-09-27T18:11:33;12.90;94.60
58554;DHT22;48119;53.218;6.576;2022-09-27T18:13:59;12.80;94.60
58554;DHT22;48119;53.218;6.576;2022-09-27T18:16:29;12.80;94.50
58554;DHT22;48119;53.218;6.576;2022-09-27T18:19:00;12.80;94.50
58554;DHT22;48119;53.218;6.576;2022-09-27T18:21:27;12.80;94.50
58554;DHT22;48119;53.218;6.576;2022-09-27T18:23:56;12.70;94.50
58554;DHT22;48119;53.218;6.576;2022-09-27T18:26:23;12.80;94.50
58554;DHT22;48119;53.218;6.576;2022-09-27T18:28:54;12.80;94.50
58554;DHT22;48119;53.218;6.576;2022-09-27T18:31:21;12.80;94.90
58554;DHT22;48119;53.218;6.576;2022-09-27T18:33:48;12.70;94.50
58554;DHT22;48119;53.218;6.576;2022-09-27T18:36:22;12.80;94.50
58554;DHT22;48119;53.218;6.576;2022-09-27T18:39:01;12.80;94.50
58554;DHT22;48119;53.218;6.576;2022-09-27T18:41:30;12.80;94.50
58554;DHT22;48119;53.218;6.576;2022-09-27T18:43:58;12.80;94.50
58554;DHT22;48119;53.218;6.576;2022-09-27T18:46:26;12.70;94.50
58554;DHT22;48119;53.218;6.576;2022-09-27T18:48:53;12.70;94.50